Time;durP1;ratioP1;P1;durP2;ratioP2;P2;SDS_P1;SDS_P2;PMS_P1;PMS_P2;Temp;Humidity;BMP_temperature;BMP_pressure;BME280_temperature;BME280_humidity;BME280_pressure;Samples;Min_cycle;Max_cycle;Signal;HPM_P1;HPM_P2
2022/06/17 00:01:10;;;;;;;7.95;7.15;;;15.50;99.90;;;;;;5091638;28;20044;-51
2022/06/17 00:03:36;;;;;;;9.57;6.55;;;15.50;99.90;;;;;;5091698;28;20474;-52
2022/06/17 00:06:04;;;;;;;9.95;7.47;;;15.40;99.90;;;;;;5091428;28;20119;-51
2022/06/17 00:08:37;;;;;;;8.73;7.50;;;15.50;99.90;;;;;;5091554;28;20470;-49
2022/06/17 00:11:03;;;;;;;11.63;7.65;;;15.50;99.90;;;;;;5090494;28;20206;-50
2022/06/17 00:13:29;;;;;;;9.50;8.27;;;15.50;99.90;;;;;;5090324;28;20036;-52
2022/06/17 00:15:54;;;;;;;13.50;7.30;;;15.40;99.90;;;;;;5090188;28;20051;-51
2022/06/17 00:18:22;;;;;;;7.95;7.10;;;15.40;99.90;;;;;;5091751;28;20036;-51
2022/06/17 00:20:50;;;;;;;12.60;8.00;;;15.40;99.90;;;;;;5091895;28;20474;-50
2022/06/17 00:23:18;;;;;;;8.35;7.43;;;15.40;99.90;;;;;;5091113;28;20486;-50
2022/06/17 00:25:46;;;;;;;10.45;7.45;;;15.50;99.90;;;;;;5091617;28;20047;-50
2022/06/17 00:28:14;;;;;;;11.52;8.15;;;15.40;99.90;;;;;;5091519;28;20047;-50
2022/06/17 00:30:40;;;;;;;10.40;8.43;;;15.40;99.90;;;;;;5091392;28;20036;-48
2022/06/17 00:33:06;;;;;;;13.52;8.55;;;15.30;99.90;;;;;;5091463;28;20040;-51
2022/06/17 00:35:36;;;;;;;11.98;8.27;;;15.30;99.90;;;;;;5090256;28;20050;-49
2022/06/17 00:38:04;;;;;;;12.80;8.07;;;15.30;99.90;;;;;;5091581;28;20099;-49
2022/06/17 00:40:33;;;;;;;10.88;7.82;;;15.30;99.90;;;;;;5091158;28;20451;-50
2022/06/17 00:43:06;;;;;;;9.77;7.40;;;15.20;99.90;;;;;;5091258;28;20032;-50
2022/06/17 00:45:42;;;;;;;9.05;7.20;;;15.20;99.90;;;;;;5091100;28;20116;-51
2022/06/17 00:48:28;;;;;;;8.60;7.63;;;15.20;99.90;;;;;;5057319;28;20037;-51
2022/06/17 00:51:05;;;;;;;8.57;7.65;;;15.20;99.90;;;;;;5090713;28;20120;-50
2022/06/17 00:53:51;;;;;;;9.73;7.75;;;15.20;99.90;;;;;;5095275;28;20054;-50
2022/06/17 00:56:22;;;;;;;8.00;7.20;;;15.20;99.90;;;;;;5095015;28;20103;-51
2022/06/17 00:59:00;;;;;;;10.55;7.68;;;15.20;99.90;;;;;;5095190;28;20044;-52
2022/06/17 01:01:27;;;;;;;10.20;7.57;;;15.20;99.90;;;;;;5094927;28;20442;-50
2022/06/17 01:03:59;;;;;;;10.35;8.35;;;15.10;99.90;;;;;;5094592;28;20515;-50
2022/06/17 01:06:30;;;;;;;10.10;8.50;;;15.20;99.90;;;;;;5094715;28;20047;-51
2022/06/17 01:12:09;;;;;;;11.73;8.48;;;15.20;99.90;;;;;;5094947;28;20044;-48
2022/06/17 01:14:36;;;;;;;10.65;7.97;;;15.20;99.90;;;;;;5093145;28;20485;-50
2022/06/17 01:17:02;;;;;;;11.27;8.35;;;15.30;99.90;;;;;;5094523;28;20074;-49
2022/06/17 01:19:39;;;;;;;11.25;7.47;;;15.40;99.90;;;;;;5094509;28;20470;-49
2022/06/17 01:22:13;;;;;;;9.95;8.32;;;15.40;99.90;;;;;;5094600;28;20101;-50
2022/06/17 01:24:39;;;;;;;13.35;8.55;;;15.40;99.90;;;;;;5094106;28;20502;-49
2022/06/17 01:27:05;;;;;;;8.55;7.72;;;15.40;99.90;;;;;;5094094;28;20089;-50
2022/06/17 01:29:33;;;;;;;9.50;6.95;;;15.40;99.90;;;;;;5093139;28;20082;-48
2022/06/17 01:31:59;;;;;;;8.70;6.57;;;15.40;99.90;;;;;;5094211;28;20036;-49
2022/06/17 01:34:25;;;;;;;8.95;7.47;;;15.30;99.90;;;;;;5094447;28;20071;-51
2022/06/17 01:36:51;;;;;;;9.63;7.22;;;15.40;99.90;;;;;;5094056;28;20450;-51
2022/06/17 01:39:17;;;;;;;11.98;7.68;;;15.20;99.90;;;;;;5093047;28;20042;-53
2022/06/17 01:41:45;;;;;;;9.50;6.85;;;15.20;99.90;;;;;;5092703;28;20040;-52
2022/06/17 01:44:13;;;;;;;9.40;6.97;;;15.20;99.90;;;;;;5094004;28;20047;-52
2022/06/17 01:46:42;;;;;;;8.98;6.22;;;15.20;99.90;;;;;;5092720;28;20482;-51
2022/06/17 01:49:16;;;;;;;8.82;6.60;;;15.20;99.90;;;;;;5092607;28;20486;-51
2022/06/17 01:51:47;;;;;;;10.93;7.60;;;15.20;99.90;;;;;;5093768;28;20038;-52
2022/06/17 01:54:25;;;;;;;10.85;6.78;;;15.20;99.90;;;;;;5085783;28;20036;-52
2022/06/17 01:56:54;;;;;;;10.07;7.03;;;15.20;99.90;;;;;;5093755;28;20075;-52
2022/06/17 01:59:41;;;;;;;14.05;7.22;;;15.20;99.90;;;;;;5085101;28;20373;-52
2022/06/17 02:02:10;;;;;;;8.35;6.82;;;15.20;99.90;;;;;;5091243;28;20497;-50
2022/06/17 02:04:39;;;;;;;9.15;7.43;;;15.10;99.90;;;;;;5093428;28;20083;-51
2022/06/17 02:07:33;;;;;;;11.48;6.90;;;15.10;99.90;;;;;;5093626;28;20093;-50
2022/06/17 02:10:00;;;;;;;7.20;6.40;;;15.00;99.90;;;;;;5093382;28;20028;-49
2022/06/17 02:12:27;;;;;;;7.07;5.40;;;15.00;99.90;;;;;;5082436;28;20033;-49
2022/06/17 02:14:55;;;;;;;10.35;6.22;;;15.00;99.90;;;;;;5090604;28;20072;-51
2022/06/17 02:17:27;;;;;;;8.32;6.45;;;15.00;99.90;;;;;;5093574;28;20042;-52
2022/06/17 02:19:53;;;;;;;9.35;6.20;;;15.10;99.90;;;;;;5093401;28;20032;-51
2022/06/17 02:22:25;;;;;;;8.70;6.30;;;15.00;99.90;;;;;;5093323;28;20035;-50
2022/06/17 02:24:56;;;;;;;7.85;6.38;;;15.00;99.90;;;;;;5093012;28;20486;-51
2022/06/17 02:27:22;;;;;;;9.35;5.85;;;14.80;99.90;;;;;;5093115;28;20402;-51
2022/06/17 02:29:49;;;;;;;6.95;5.38;;;14.90;99.90;;;;;;5093247;28;20161;-51
2022/06/17 02:32:17;;;;;;;6.53;5.57;;;14.90;99.90;;;;;;5093313;28;20111;-49
2022/06/17 02:35:02;;;;;;;7.20;5.50;;;14.90;99.90;;;;;;5093330;28;20449;-52
2022/06/17 02:37:30;;;;;;;7.45;5.22;;;14.80;99.90;;;;;;5070709;28;20052;-49
2022/06/17 02:39:59;;;;;;;7.70;4.90;;;14.80;99.90;;;;;;5070755;28;20535;-51
2022/06/17 02:42:30;;;;;;;5.93;5.32;;;14.80;99.90;;;;;;5070401;28;20372;-50
2022/06/17 02:45:17;;;;;;;10.50;5.53;;;14.80;99.90;;;;;;5053777;28;20040;-52
2022/06/17 02:47:44;;;;;;;7.90;5.57;;;14.80;99.90;;;;;;5053577;28;20040;-50
2022/06/17 02:50:16;;;;;;;8.05;6.07;;;14.80;99.90;;;;;;5070271;28;20039;-50
2022/06/17 02:52:43;;;;;;;8.75;5.50;;;14.70;99.90;;;;;;5070320;28;20543;-50
2022/06/17 02:55:27;;;;;;;6.80;5.18;;;14.70;99.90;;;;;;5070292;28;20455;-47
2022/06/17 02:58:00;;;;;;;8.68;5.60;;;14.70;99.90;;;;;;5070271;28;20037;-50
2022/06/17 03:00:25;;;;;;;8.85;4.97;;;14.70;99.90;;;;;;5070157;28;20036;-50
2022/06/17 03:03:00;;;;;;;10.45;5.43;;;14.70;99.90;;;;;;5069851;28;20050;-51
2022/06/17 03:05:29;;;;;;;7.70;5.43;;;14.70;99.90;;;;;;5070193;28;20068;-47
2022/06/17 03:07:57;;;;;;;7.90;5.05;;;14.70;99.90;;;;;;5070007;28;20115;-50
2022/06/17 03:10:31;;;;;;;7.60;5.20;;;14.70;99.90;;;;;;5070217;28;20107;-48
2022/06/17 03:13:01;;;;;;;12.23;5.03;;;14.70;99.90;;;;;;5069605;28;20041;-49
2022/06/17 03:15:27;;;;;;;7.90;4.88;;;14.80;99.90;;;;;;5089616;28;20048;-49
2022/06/17 03:17:53;;;;;;;7.57;5.25;;;14.90;99.90;;;;;;5092184;28;20043;-51
2022/06/17 03:20:30;;;;;;;7.25;4.43;;;14.90;99.90;;;;;;5092367;28;20039;-50
2022/06/17 03:23:11;;;;;;;7.30;4.90;;;15.00;99.90;;;;;;5092550;28;20043;-48
2022/06/17 03:25:47;;;;;;;5.65;4.90;;;15.00;99.90;;;;;;5091742;28;20428;-51
2022/06/17 03:28:18;;;;;;;7.63;4.80;;;15.10;99.90;;;;;;5092247;28;20040;-51
2022/06/17 03:31:05;;;;;;;9.07;5.28;;;15.10;99.90;;;;;;5091987;28;20036;-51
2022/06/17 03:33:59;;;;;;;8.10;4.80;;;15.20;99.90;;;;;;5092034;28;20040;-51
2022/06/17 03:36:33;;;;;;;7.05;4.43;;;15.20;99.90;;;;;;5092009;28;20055;-49
2022/06/17 03:39:03;;;;;;;7.55;4.53;;;15.20;99.90;;;;;;5092067;28;20047;-50
2022/06/17 03:41:44;;;;;;;6.68;4.20;;;15.30;99.90;;;;;;5092038;28;20040;-52
2022/06/17 03:44:14;;;;;;;5.45;4.95;;;15.30;99.90;;;;;;5091665;28;20119;-51
2022/06/17 03:46:46;;;;;;;7.03;4.88;;;15.30;99.90;;;;;;5091826;28;20421;-51
2022/06/17 03:49:39;;;;;;;8.55;4.47;;;15.30;99.90;;;;;;5091622;28;20040;-50
2022/06/17 03:52:14;;;;;;;7.07;4.38;;;15.20;99.90;;;;;;5092024;28;20068;-52
2022/06/17 03:54:40;;;;;;;6.85;4.47;;;15.20;99.90;;;;;;5091987;28;20082;-51
2022/06/17 03:57:10;;;;;;;7.75;5.30;;;15.30;99.90;;;;;;5091666;28;20445;-50
2022/06/17 03:59:36;;;;;;;9.15;4.95;;;15.30;99.90;;;;;;5091702;28;20447;-49
2022/06/17 04:02:12;;;;;;;6.63;4.50;;;15.40;99.90;;;;;;5091763;28;20402;-52
2022/06/17 04:04:42;;;;;;;5.22;3.70;;;15.40;99.90;;;;;;5091815;28;20091;-51
2022/06/17 04:07:11;;;;;;;11.50;4.70;;;15.50;99.90;;;;;;5091606;28;20521;-50
2022/06/17 04:09:39;;;;;;;6.97;4.20;;;15.50;99.90;;;;;;5090466;28;20063;-51
2022/06/17 04:12:20;;;;;;;4.72;4.22;;;15.50;99.90;;;;;;5091877;28;20040;-48
2022/06/17 04:15:19;;;;;;;10.35;4.53;;;15.60;99.90;;;;;;5091855;28;20051;-51
2022/06/17 04:17:51;;;;;;;5.88;4.10;;;15.60;99.90;;;;;;5091947;28;20093;-50
2022/06/17 04:20:26;;;;;;;7.38;4.57;;;15.60;99.90;;;;;;5091679;28;20044;-49
2022/06/17 04:22:55;;;;;;;10.20;4.50;;;15.60;99.90;;;;;;5091659;28;20052;-47
2022/06/17 04:25:38;;;;;;;8.73;4.13;;;15.70;99.90;;;;;;5095313;28;20110;-51
2022/06/17 04:28:08;;;;;;;5.82;4.53;;;15.80;99.90;;;;;;5096214;28;20048;-50
2022/06/17 04:30:45;;;;;;;7.47;5.07;;;15.80;99.90;;;;;;5085613;28;20041;-49
2022/06/17 04:33:26;;;;;;;7.68;5.15;;;15.90;99.90;;;;;;5091690;28;20040;-51
2022/06/17 04:36:13;;;;;;;6.20;4.90;;;15.90;99.90;;;;;;5095399;28;20518;-52
2022/06/17 04:39:06;;;;;;;6.47;4.65;;;16.00;99.90;;;;;;5095103;28;20039;-51
2022/06/17 04:41:37;;;;;;;9.75;5.25;;;16.00;99.90;;;;;;5089177;28;20078;-50
2022/06/17 04:44:05;;;;;;;7.40;4.95;;;16.10;99.90;;;;;;5095392;28;20039;-50
2022/06/17 04:46:47;;;;;;;8.05;4.72;;;16.10;99.90;;;;;;5094415;28;20089;-52
2022/06/17 04:49:24;;;;;;;9.27;5.68;;;16.10;99.90;;;;;;5071176;28;20071;-51
2022/06/17 04:51:54;;;;;;;7.07;5.32;;;16.10;99.90;;;;;;5095080;28;20115;-48
2022/06/17 04:54:20;;;;;;;7.22;5.60;;;16.10;99.90;;;;;;5095441;28;20081;-51
2022/06/17 04:56:49;;;;;;;9.30;5.82;;;16.10;99.90;;;;;;5094853;28;20048;-50
2022/06/17 04:59:40;;;;;;;9.23;5.22;;;16.10;99.90;;;;;;5095115;28;20048;-51
2022/06/17 05:02:21;;;;;;;8.85;5.78;;;16.00;99.90;;;;;;5094894;28;20393;-49
2022/06/17 05:04:50;;;;;;;7.82;5.30;;;16.00;99.90;;;;;;5067670;28;20047;-49
2022/06/17 05:07:17;;;;;;;;;;;16.10;99.90;;;;;;5095506;28;20043;-52
2022/06/17 05:09:51;;;;;;;10.38;5.30;;;16.00;99.90;;;;;;5094822;28;19916;-49
2022/06/17 05:12:30;;;;;;;7.45;5.35;;;16.10;99.90;;;;;;5094639;28;20035;-48
2022/06/17 05:15:06;;;;;;;6.45;4.68;;;16.10;99.90;;;;;;5094632;28;20040;-51
2022/06/17 05:17:33;;;;;;;7.75;5.32;;;16.10;99.90;;;;;;5094686;28;20050;-52
2022/06/17 05:19:59;;;;;;;7.63;5.53;;;16.10;99.90;;;;;;5094824;28;20050;-48
2022/06/17 05:22:41;;;;;;;10.27;5.22;;;16.10;99.90;;;;;;5094252;28;20032;-51
2022/06/17 05:25:17;;;;;;;6.45;4.80;;;16.20;99.90;;;;;;5094528;28;20052;-50
2022/06/17 05:27:43;;;;;;;7.07;4.82;;;16.10;99.90;;;;;;5094310;28;20105;-52
2022/06/17 05:30:11;;;;;;;6.82;4.78;;;16.10;99.90;;;;;;5094588;28;20032;-50
2022/06/17 05:32:38;;;;;;;6.97;5.30;;;16.20;99.90;;;;;;5094148;28;20539;-51
2022/06/17 05:35:03;;;;;;;11.50;5.60;;;16.20;99.90;;;;;;5092838;28;20047;-49
2022/06/17 05:37:29;;;;;;;7.13;4.70;;;16.20;99.90;;;;;;5094199;28;20386;-51
2022/06/17 05:39:55;;;;;;;17.40;6.15;;;16.30;99.90;;;;;;5092007;28;20481;-50
2022/06/17 05:42:20;;;;;;;7.45;4.90;;;16.30;99.90;;;;;;5073605;28;20040;-52
2022/06/17 05:44:47;;;;;;;8.55;5.38;;;16.40;99.90;;;;;;5093096;28;20036;-53
2022/06/17 05:47:12;;;;;;;7.07;5.68;;;16.40;99.90;;;;;;5094070;28;20031;-50
2022/06/17 05:49:39;;;;;;;7.20;5.15;;;16.40;99.90;;;;;;5094202;28;20615;-49
2022/06/17 05:52:05;;;;;;;10.48;5.00;;;16.50;99.90;;;;;;5094402;28;20040;-51
2022/06/17 05:54:31;;;;;;;9.50;4.72;;;16.50;99.90;;;;;;5094364;28;20044;-52
2022/06/17 05:56:57;;;;;;;8.18;5.40;;;16.60;99.90;;;;;;5093899;28;20039;-48
2022/06/17 05:59:22;;;;;;;8.48;5.28;;;16.70;99.90;;;;;;5093886;28;20047;-51
2022/06/17 06:01:48;;;;;;;10.48;6.47;;;16.70;99.90;;;;;;5093727;28;20439;-52
2022/06/17 06:04:14;;;;;;;11.45;5.45;;;16.70;99.90;;;;;;5093545;28;20516;-50
2022/06/17 06:06:39;;;;;;;11.75;6.47;;;16.80;99.90;;;;;;5093864;28;20036;-50
2022/06/17 06:09:05;;;;;;;9.35;5.28;;;16.80;99.90;;;;;;5093622;28;20165;-48
2022/06/17 06:11:30;;;;;;;9.07;6.45;;;16.90;99.90;;;;;;5093573;28;20057;-51
2022/06/17 06:13:56;;;;;;;9.48;5.32;;;16.90;99.90;;;;;;5093720;28;20390;-51
2022/06/17 06:16:23;;;;;;;6.32;5.18;;;16.90;99.90;;;;;;5093443;28;20043;-50
2022/06/17 06:18:50;;;;;;;7.63;5.20;;;17.00;99.90;;;;;;5093130;28;20504;-50
2022/06/17 06:21:16;;;;;;;11.45;5.78;;;17.00;99.90;;;;;;5093574;28;20047;-51
2022/06/17 06:23:42;;;;;;;7.05;5.40;;;17.00;99.90;;;;;;5093075;28;20036;-51
2022/06/17 06:26:12;;;;;;;9.18;5.28;;;17.10;99.90;;;;;;5093226;28;20052;-52
2022/06/17 06:28:38;;;;;;;9.70;5.43;;;17.20;99.90;;;;;;5091881;28;20360;-51
2022/06/17 06:31:13;;;;;;;7.50;5.07;;;17.20;99.90;;;;;;5093142;28;20039;-51
2022/06/17 06:33:40;;;;;;;7.25;5.75;;;17.20;99.90;;;;;;5093153;28;20040;-51
2022/06/17 06:36:06;;;;;;;12.13;6.00;;;17.30;99.90;;;;;;5093068;28;20501;-50
2022/06/17 06:38:32;;;;;;;9.75;5.65;;;17.30;99.90;;;;;;5093031;28;20042;-50
2022/06/17 06:40:57;;;;;;;9.18;6.30;;;17.40;99.90;;;;;;5091940;28;20119;-47
2022/06/17 06:43:23;;;;;;;10.13;5.30;;;17.50;99.90;;;;;;5092637;28;20036;-51
2022/06/17 06:45:51;;;;;;;12.52;6.18;;;17.70;99.90;;;;;;5092398;28;20085;-52
2022/06/17 06:48:20;;;;;;;11.75;7.00;;;17.80;99.90;;;;;;5092915;28;20428;-52
2022/06/17 06:50:46;;;;;;;11.30;6.38;;;18.00;99.90;;;;;;5081260;28;20024;-51
2022/06/17 06:53:11;;;;;;;12.27;6.32;;;18.10;99.90;;;;;;5092948;28;20519;-50
2022/06/17 06:55:38;;;;;;;6.82;5.70;;;18.20;99.90;;;;;;5092562;28;20035;-50
2022/06/17 06:58:22;;;;;;;9.10;6.20;;;18.30;99.90;;;;;;5092515;28;20494;-50
2022/06/17 07:00:54;;;;;;;10.40;6.13;;;18.40;99.90;;;;;;5092610;28;20151;-50
2022/06/17 07:03:20;;;;;;;9.60;5.72;;;18.50;99.90;;;;;;5092752;28;20074;-52
2022/06/17 07:05:50;;;;;;;7.40;5.72;;;18.60;99.90;;;;;;5092559;28;20112;-51
2022/06/17 07:08:19;;;;;;;9.73;5.72;;;18.80;99.90;;;;;;5092457;28;20036;-51
2022/06/17 07:10:46;;;;;;;7.80;6.07;;;18.90;99.90;;;;;;5092561;28;20169;-51
2022/06/17 07:13:12;;;;;;;7.00;5.32;;;19.00;99.90;;;;;;5092414;28;20036;-52
2022/06/17 07:15:40;;;;;;;10.27;5.85;;;19.10;99.90;;;;;;5092168;28;20055;-52
2022/06/17 07:18:18;;;;;;;11.40;6.53;;;19.10;99.90;;;;;;5092308;28;20047;-51
2022/06/17 07:20:48;;;;;;;7.68;5.85;;;19.10;99.90;;;;;;5092012;28;20063;-51
2022/06/17 07:23:36;;;;;;;9.27;5.57;;;19.20;99.90;;;;;;5092157;28;20535;-52
2022/06/17 07:26:06;;;;;;;9.38;5.97;;;19.20;99.90;;;;;;5090870;28;20052;-51
2022/06/17 07:28:34;;;;;;;8.90;6.00;;;19.20;99.90;;;;;;5092145;28;20072;-51
2022/06/17 07:31:00;;;;;;;8.90;5.95;;;19.20;99.90;;;;;;5092158;28;20046;-50
2022/06/17 07:33:28;;;;;;;8.27;5.50;;;19.30;99.90;;;;;;5092009;28;20469;-52
2022/06/17 07:35:57;;;;;;;13.70;6.22;;;19.40;99.90;;;;;;5090563;28;20402;-52
2022/06/17 07:41:13;;;;;;;6.72;5.10;;;19.60;99.90;;;;;;5091985;28;20105;-49
2022/06/17 07:43:40;;;;;;;7.43;5.70;;;19.70;99.90;;;;;;5091959;28;20389;-51
2022/06/17 07:46:06;;;;;;;8.32;5.45;;;19.80;99.90;;;;;;5090941;28;20044;-47
2022/06/17 07:48:33;;;;;;;9.35;5.75;;;19.90;99.90;;;;;;5091651;28;20033;-51
2022/06/17 07:50:59;;;;;;;7.93;6.05;;;20.00;99.90;;;;;;5092026;28;20036;-51
2022/06/17 07:53:27;;;;;;;10.35;5.60;;;20.20;99.90;;;;;;5091946;28;20039;-50
2022/06/17 07:55:53;;;;;;;6.70;5.60;;;20.20;99.90;;;;;;5091823;28;20036;-51
2022/06/17 07:58:19;;;;;;;14.70;6.50;;;20.30;99.90;;;;;;5089777;28;20490;-52
2022/06/17 08:00:46;;;;;;;7.47;5.07;;;20.50;99.90;;;;;;5091626;28;20103;-52
2022/06/17 08:03:14;;;;;;;8.75;5.90;;;20.60;99.90;;;;;;5091909;28;20044;-51
2022/06/17 08:05:43;;;;;;;6.50;5.30;;;20.60;99.90;;;;;;5091915;28;20036;-53
2022/06/17 08:08:09;;;;;;;12.30;5.70;;;20.70;99.90;;;;;;5091799;28;20363;-52
2022/06/17 08:10:36;;;;;;;7.20;5.25;;;20.80;99.90;;;;;;5091648;28;20044;-48
2022/06/17 08:13:05;;;;;;;12.70;5.88;;;20.90;99.90;;;;;;5091572;28;20067;-51
2022/06/17 08:15:31;;;;;;;6.45;4.82;;;20.80;99.90;;;;;;5091680;28;20402;-50
2022/06/17 08:17:57;;;;;;;8.05;5.55;;;20.90;99.90;;;;;;5091676;28;20043;-51
2022/06/17 08:20:26;;;;;;;8.13;5.60;;;20.90;99.90;;;;;;5091573;28;20433;-52
2022/06/17 08:22:52;;;;;;;6.55;5.25;;;20.90;99.90;;;;;;5091448;28;20063;-51
2022/06/17 08:25:18;;;;;;;12.77;5.40;;;21.10;99.90;;;;;;5091464;28;20418;-50
2022/06/17 08:27:53;;;;;;;10.02;5.80;;;21.30;99.90;;;;;;5090233;28;20040;-51
2022/06/17 08:30:22;;;;;;;10.70;6.07;;;21.50;99.90;;;;;;5091626;28;20111;-50
2022/06/17 08:32:51;;;;;;;9.35;5.95;;;21.70;99.90;;;;;;5090398;28;20048;-46
2022/06/17 08:35:29;;;;;;;8.15;6.40;;;21.80;99.90;;;;;;5089961;28;20128;-51
2022/06/17 08:38:00;;;;;;;12.07;5.57;;;21.80;99.90;;;;;;5091415;28;20047;-53
2022/06/17 08:40:39;;;;;;;9.90;5.40;;;22.00;99.90;;;;;;5091421;28;20040;-51
2022/06/17 08:43:29;;;;;;;10.90;5.80;;;22.00;99.90;;;;;;5091660;28;20046;-51
2022/06/17 08:46:11;;;;;;;;;;;22.10;99.90;;;;;;5069714;28;20039;-51
2022/06/17 08:48:55;;;;;;;8.38;4.80;;;22.10;99.90;;;;;;5091121;28;20053;-50
2022/06/17 08:51:48;;;;;;;9.05;5.75;;;22.20;99.90;;;;;;5091579;28;20432;-51
2022/06/17 08:54:55;;;;;;;9.02;5.28;;;22.20;99.90;;;;;;5066193;28;20044;-51
2022/06/17 08:57:33;;;;;;;8.32;4.80;;;22.30;99.90;;;;;;5067796;28;20040;-50
2022/06/17 09:00:28;;;;;;;9.73;5.22;;;22.20;99.90;;;;;;5051691;28;20092;-52
2022/06/17 09:02:53;;;;;;;8.88;5.05;;;22.10;99.90;;;;;;5068469;28;20048;-47
2022/06/17 09:05:27;;;;;;;5.10;4.53;;;22.10;99.90;;;;;;5068552;28;20044;-51
2022/06/17 09:08:05;;;;;;;8.18;4.70;;;22.20;99.90;;;;;;5056785;28;20036;-50
2022/06/17 09:11:14;;;;;;;13.85;5.47;;;22.20;99.90;;;;;;5071347;28;20033;-50
2022/06/17 09:14:17;;;;;;;9.90;5.25;;;22.20;99.90;;;;;;5062014;28;20506;-52
2022/06/17 09:17:04;;;;;;;9.07;4.65;;;22.30;99.90;;;;;;5055408;28;20044;-51
2022/06/17 09:19:33;;;;;;;7.32;4.38;;;22.30;99.90;;;;;;5072146;28;20049;-51
2022/06/17 09:22:13;;;;;;;6.60;4.72;;;22.30;99.90;;;;;;5072178;28;20040;-49
2022/06/17 09:24:42;;;;;;;6.82;4.22;;;22.30;99.90;;;;;;5056937;28;20067;-48
2022/06/17 09:27:10;;;;;;;;;;;22.30;99.90;;;;;;5052467;28;20138;-50
2022/06/17 09:29:55;;;;;;;6.85;4.05;;;22.40;99.90;;;;;;5051710;28;19917;-52
2022/06/17 09:32:23;;;;;;;13.18;4.30;;;22.50;99.90;;;;;;5064527;28;20136;-51
2022/06/17 09:35:26;;;;;;;6.40;3.90;;;22.60;99.90;;;;;;5074074;28;20033;-51
2022/06/17 09:38:05;;;;;;;6.93;4.35;;;22.90;99.90;;;;;;5051122;28;20535;-52
2022/06/17 09:40:53;;;;;;;6.10;4.18;;;23.30;99.90;;;;;;5051690;28;20083;-53
2022/06/17 09:43:32;;;;;;;5.80;4.10;;;23.80;99.90;;;;;;5051268;28;20111;-54
2022/06/17 09:46:43;;;;;;;6.25;3.65;;;24.20;99.90;;;;;;5051538;28;20087;-53
2022/06/17 09:49:13;;;;;;;7.05;4.07;;;24.30;99.90;;;;;;4944929;29;20066;-54
2022/06/17 09:51:58;;;;;;;8.07;4.22;;;24.50;99.90;;;;;;4953238;29;20027;-54
2022/06/17 09:54:50;;;;;;;8.32;3.83;;;24.60;99.90;;;;;;4953346;29;20054;-54
2022/06/17 09:57:23;;;;;;;5.20;3.47;;;24.60;99.90;;;;;;4953233;29;20105;-54
2022/06/17 09:59:52;;;;;;;10.40;3.70;;;24.50;99.90;;;;;;4953173;29;20055;-53
2022/06/17 10:02:41;;;;;;;8.43;3.25;;;24.40;99.90;;;;;;4966683;28;20054;-53
2022/06/17 10:05:28;;;;;;;7.65;3.72;;;24.20;99.90;;;;;;4972717;28;20070;-53
2022/06/17 10:08:24;;;;;;;8.38;3.47;;;24.30;99.90;;;;;;4964948;28;20117;-51
2022/06/17 10:11:39;;;;;;;6.20;3.65;;;24.20;99.90;;;;;;4972576;28;20047;-53
2022/06/17 10:14:21;;;;;;;6.57;2.97;;;24.20;99.90;;;;;;4904104;29;20056;-51
2022/06/17 10:19:56;;;;;;;6.85;3.17;;;24.10;99.90;;;;;;4930671;29;20051;-53
2022/06/17 10:22:30;;;;;;;5.22;3.58;;;24.00;99.90;;;;;;4952451;28;20171;-52
2022/06/17 10:25:21;;;;;;;10.63;3.33;;;24.00;99.90;;;;;;4952817;29;20126;-53
2022/06/17 10:28:16;;;;;;;5.93;3.22;;;24.00;99.90;;;;;;4952934;29;20517;-51
2022/06/17 10:30:56;;;;;;;5.88;3.35;;;23.80;99.90;;;;;;4943473;29;20070;-51
2022/06/17 10:33:23;;;;;;;6.28;3.67;;;23.80;99.90;;;;;;4952953;28;20039;-53
2022/06/17 10:35:50;;;;;;;6.80;3.08;;;23.90;99.90;;;;;;4952847;28;20043;-52
2022/06/17 10:38:40;;;;;;;7.93;3.42;;;23.80;99.90;;;;;;4952568;29;20583;-53
2022/06/17 10:41:07;;;;;;;7.22;3.20;;;23.90;99.90;;;;;;4933267;29;20131;-54
2022/06/17 10:43:43;;;;;;;5.72;3.00;;;23.90;99.90;;;;;;4933189;29;20083;-53
2022/06/17 10:46:18;;;;;;;9.77;3.22;;;24.10;99.90;;;;;;4933482;29;20055;-52
2022/06/17 10:48:50;;;;;;;4.30;3.00;;;24.20;99.90;;;;;;4933210;29;20490;-53
2022/06/17 10:51:16;;;;;;;9.02;3.13;;;24.30;99.90;;;;;;4993365;28;20156;-51
2022/06/17 10:53:50;;;;;;;5.00;3.15;;;24.50;99.90;;;;;;5030439;28;20037;-53
2022/06/17 10:56:24;;;;;;;8.90;3.40;;;24.60;99.90;;;;;;5030453;28;20038;-52
2022/06/17 10:59:28;;;;;;;6.40;3.45;;;24.70;99.90;;;;;;5030397;28;20192;-53
2022/06/17 11:01:56;;;;;;;7.18;3.55;;;24.70;99.90;;;;;;5030283;28;20183;-54
2022/06/17 11:04:28;;;;;;;10.38;4.13;;;24.70;99.90;;;;;;5030108;28;20419;-53
2022/06/17 11:07:05;;;;;;;7.97;3.30;;;24.70;99.90;;;;;;5030277;28;20052;-53
2022/06/17 11:09:37;;;;;;;5.43;3.35;;;24.80;99.90;;;;;;5030307;28;20029;-53
2022/06/17 11:12:33;;;;;;;10.07;4.10;;;25.10;99.90;;;;;;5030283;28;20049;-54
2022/06/17 11:15:06;;;;;;;8.43;3.90;;;25.20;99.90;;;;;;4971433;28;20049;-55
2022/06/17 11:17:40;;;;;;;6.68;3.33;;;25.20;99.90;;;;;;4981682;28;20057;-54
2022/06/17 11:20:17;;;;;;;7.35;3.63;;;25.30;99.90;;;;;;4988415;28;20093;-54
2022/06/17 11:22:56;;;;;;;6.57;3.78;;;25.50;99.90;;;;;;4990378;28;20121;-55
2022/06/17 11:25:36;;;;;;;6.80;3.50;;;25.80;99.90;;;;;;4987576;28;20072;-53
2022/06/17 11:28:19;;;;;;;9.13;4.53;;;26.00;99.90;;;;;;4987767;28;20072;-54
2022/06/17 11:30:55;;;;;;;6.85;4.15;;;26.30;99.90;;;;;;4978422;28;20049;-53
2022/06/17 11:33:23;;;;;;;8.23;4.22;;;26.20;99.90;;;;;;4987792;28;20089;-54
2022/06/17 11:36:02;;;;;;;7.45;3.95;;;26.30;99.90;;;;;;4988583;28;20394;-55
2022/06/17 11:38:29;;;;;;;;;;;26.40;99.90;;;;;;4989683;28;20112;-54
2022/06/17 11:41:00;;;;;;;8.10;3.85;;;26.40;99.90;;;;;;4990159;28;19918;-52
2022/06/17 11:43:42;;;;;;;8.80;4.18;;;26.60;99.90;;;;;;4974321;28;20054;-52
2022/06/17 11:46:16;;;;;;;11.13;4.68;;;26.60;99.90;;;;;;4974044;28;20493;-53
2022/06/17 11:48:47;;;;;;;6.38;3.95;;;26.50;99.90;;;;;;4989823;28;20073;-53
2022/06/17 11:51:14;;;;;;;10.75;3.58;;;26.60;99.90;;;;;;5024772;28;20060;-54
2022/06/17 11:53:52;;;;;;;7.20;4.53;;;26.60;99.90;;;;;;5071337;28;20036;-53
2022/06/17 11:56:28;;;;;;;7.28;3.63;;;26.60;99.90;;;;;;5071376;28;20040;-53
2022/06/17 11:59:01;;;;;;;10.70;4.22;;;26.60;99.90;;;;;;5071559;28;20429;-52
2022/06/17 12:01:28;;;;;;;7.32;3.47;;;26.70;99.90;;;;;;5078365;28;20051;-52
2022/06/17 12:03:54;;;;;;;5.97;4.07;;;26.90;99.90;;;;;;5091666;28;20128;-54
2022/06/17 12:06:27;;;;;;;9.73;3.72;;;27.00;99.90;;;;;;5091523;28;20067;-53
2022/06/17 12:09:24;;;;;;;9.00;3.72;;;27.40;99.90;;;;;;5091553;28;20036;-52
2022/06/17 12:11:56;;;;;;;6.30;2.90;;;27.70;99.90;;;;;;5090575;28;20054;-54
2022/06/17 12:14:32;;;;;;;5.43;3.28;;;28.10;99.90;;;;;;5091532;28;20119;-54
2022/06/17 12:16:59;;;;;;;4.57;3.15;;;28.00;99.80;;;;;;5091600;28;20039;-54
2022/06/17 12:19:24;;;;;;;4.30;3.58;;;28.00;99.70;;;;;;5091280;28;20052;-53
2022/06/17 12:21:58;;;;;;;7.22;3.42;;;28.00;99.90;;;;;;5091617;28;20489;-53
2022/06/17 12:24:41;;;;;;;5.25;2.80;;;28.10;99.80;;;;;;5091331;28;20075;-53
2022/06/17 12:27:07;;;;;;;4.85;2.95;;;28.10;99.90;;;;;;5067968;28;20048;-54
2022/06/17 12:30:02;;;;;;;7.22;3.17;;;28.10;99.90;;;;;;5091088;28;20051;-53
2022/06/17 12:32:50;;;;;;;5.80;3.30;;;28.40;99.90;;;;;;5091629;28;20217;-53
2022/06/17 12:35:35;;;;;;;6.20;2.60;;;28.60;99.30;;;;;;5091668;28;20109;-53
2022/06/17 12:38:05;;;;;;;6.82;3.35;;;28.70;98.70;;;;;;5091332;28;20116;-52
2022/06/17 12:40:50;;;;;;;3.70;2.65;;;28.90;98.10;;;;;;5091904;28;20386;-52
2022/06/17 12:43:49;;;;;;;5.28;2.72;;;28.80;98.80;;;;;;5091234;28;20036;-54
2022/06/17 12:46:23;;;;;;;6.03;2.92;;;29.00;98.20;;;;;;5072561;28;20056;-53
2022/06/17 12:55:21;;;;;;;9.10;3.33;;;28.40;98.20;;;;;;5072291;28;20048;-54
2022/06/17 12:57:54;;;;;;;8.32;3.90;;;28.10;98.70;;;;;;5072391;28;20125;-53
2022/06/17 13:00:34;;;;;;;4.80;3.58;;;28.00;99.20;;;;;;5072244;28;20059;-51
2022/06/17 13:03:18;;;;;;;6.43;3.90;;;27.90;99.30;;;;;;5072233;28;20047;-53
2022/06/17 13:05:46;;;;;;;6.55;3.70;;;28.00;99.70;;;;;;5072485;28;20040;-54
2022/06/17 13:08:47;;;;;;;8.15;3.35;;;27.80;99.30;;;;;;5072574;28;20040;-54
2022/06/17 13:11:29;;;;;;;4.07;3.00;;;27.80;99.70;;;;;;5072084;28;20469;-53
2022/06/17 13:14:07;;;;;;;5.20;3.22;;;27.70;99.60;;;;;;5072163;28;20046;-54
2022/06/17 13:16:47;;;;;;;8.70;3.42;;;27.70;99.90;;;;;;5072077;28;20048;-52
2022/06/17 13:19:34;;;;;;;8.57;3.55;;;27.40;99.90;;;;;;5072119;28;20453;-53
2022/06/17 13:22:08;;;;;;;5.10;3.53;;;27.30;99.40;;;;;;5072030;28;20541;-53
2022/06/17 13:24:50;;;;;;;6.18;3.30;;;27.10;99.90;;;;;;5094108;28;20498;-54
2022/06/17 13:27:19;;;;;;;6.40;3.40;;;27.00;99.80;;;;;;5092264;28;20036;-53
2022/06/17 13:29:57;;;;;;;6.50;3.20;;;27.00;99.90;;;;;;5090235;28;20036;-52
2022/06/17 13:32:26;;;;;;;8.07;3.60;;;27.00;99.80;;;;;;5094439;28;20462;-54
2022/06/17 13:34:54;;;;;;;5.63;3.35;;;26.90;99.80;;;;;;5094250;28;20040;-53